sensor_id;sensor_type;location;lat;lon;timestamp;P1;P2;P0
85896;PMS5003;76442;52.412;16.940;2024-02-16T00:00:09;24.92215021555327;24.92215021555327;14.609536333255365
85896;PMS5003;76442;52.412;16.940;2024-02-16T00:15:09;30.09194702705557;22.354017791526996;13.75631864093969
85896;PMS5003;76442;52.412;16.940;2024-02-16T00:30:09;21.529385805050797;19.807034940646734;13.77880691523251
85896;PMS5003;76442;52.412;16.940;2024-02-16T00:45:09;24.155463155035086;21.567377816995613;12.077731577517543
85896;PMS5003;76442;52.412;16.940;2024-02-16T01:00:09;23.37036694057216;21.63922864867793;12.11796804325964
85896;PMS5003;76442;52.412;16.940;2024-02-16T01:15:09;21.67315405452055;19.939301730158906;11.270040108350685
85896;PMS5003;76442;52.412;16.940;2024-02-16T01:30:09;21.74923654585927;20.00929762219053;12.179572465681192
85896;PMS5003;76442;52.412;16.940;2024-02-16T01:45:09;21.841679161799632;20.09434482885566;10.484005997663823
85896;PMS5003;76442;52.412;16.940;2024-02-16T02:00:09;20.953831224391436;17.461526020326197;13.096144515244648
85896;PMS5003;76442;52.412;16.940;2024-02-16T02:15:09;31.797226137085207;25.781534705744765;12.03138286268089
85896;PMS5003;76442;52.412;16.940;2024-02-16T02:30:09;28.758753134563214;22.837833371564905;16.071067928138266
85896;PMS5003;76442;52.412;16.940;2024-02-16T02:45:09;28.420489016984195;26.748695545396888;15.882037980079403
85896;PMS5003;76442;52.412;16.940;2024-02-16T03:00:09;27.705917321906163;26.026770817548215;15.112318539221544
85896;PMS5003;76442;52.412;16.940;2024-02-16T03:15:09;28.4557808360505;20.923368261801837;10.880151496136955
85896;PMS5003;76442;52.412;16.940;2024-02-16T03:30:09;34.29611884047876;31.786646730199827;19.23928617880516
85896;PMS5003;76442;52.412;16.940;2024-02-16T03:45:09;31.931343335798477;31.931343335798477;15.125373159062436
85896;PMS5003;76442;52.412;16.940;2024-02-16T04:00:09;25.138980306455345;25.138980306455345;15.083388183873208
85896;PMS5003;76442;52.412;16.940;2024-02-16T04:15:10;19.23928617880516;19.23928617880516;13.38385125482098
85896;PMS5003;76442;52.412;16.940;2024-02-16T04:30:10;18.5746085279517;18.5746085279517;9.28730426397585
85896;PMS5003;76442;52.412;16.940;2024-02-16T04:45:10;18.55592643777514;16.869024034341034;10.12141442060462
85896;PMS5003;76442;52.412;16.940;2024-02-16T05:00:10;26.786638881387635;26.786638881387635;10.882072045563726
85896;PMS5003;76442;52.412;16.940;2024-02-16T05:15:09;23.503978551290597;23.503978551290597;13.43084488645177
85896;PMS5003;76442;52.412;16.940;2024-02-16T05:30:09;22.565193221164094;20.893697427003794;10.864722662041972
85896;PMS5003;76442;52.412;16.940;2024-02-16T05:45:09;18.42230553214794;16.747550483770855;9.21115276607397
85896;PMS5003;76442;52.412;16.940;2024-02-16T06:00:09;24.197659336399898;18.356845013820614;13.350432737324082
85896;PMS5003;76442;52.412;16.940;2024-02-16T06:15:09;24.100837367950195;19.945520580372573;14.128077077763907
85896;PMS5003;76442;52.412;16.940;2024-02-16T06:30:09;26.093916433959127;24.41043795434886;14.309567076687264
85896;PMS5003;76442;52.412;16.940;2024-02-16T06:45:09;24.047152351447618;24.047152351447618;14.096606550848604
85896;PMS5003;76442;52.412;16.940;2024-02-16T07:00:09;25.80463304856965;25.80463304856965;13.762470959237147
85896;PMS5003;76442;52.412;16.940;2024-02-16T07:15:09;25.576594668942008;25.576594668942008;14.993176185241866
85896;PMS5003;76442;52.412;16.940;2024-02-16T07:30:09;26.44036990544304;24.61689611886076;15.499527185949367
85896;PMS5003;76442;52.412;16.940;2024-02-16T07:45:09;39.098609609608104;35.37493250393114;21.411143357642533
85896;PMS5003;76442;52.412;16.940;2024-02-16T08:00:09;33.04119974748351;29.265062633485392;19.824719848490105
85896;PMS5003;76442;52.412;16.940;2024-02-16T08:15:09;35.1578051251179;28.506328479825328;18.054008037222708
85896;PMS5003;76442;52.412;16.940;2024-02-16T08:30:09;46.453439586130976;38.71119965510915;23.226719793065488
85896;PMS5003;76442;52.412;16.940;2024-02-16T08:45:09;39.05075361864822;34.169409416317194;15.620301447459289
85896;PMS5003;76442;52.412;16.940;2024-02-16T09:00:09;34.54775804677379;29.61236404009182;15.793260821382303
85896;PMS5003;76442;52.412;16.940;2024-02-16T09:15:09;31.964287227037726;26.969867347813082;12.985491685984076
85896;PMS5003;76442;52.412;16.940;2024-02-16T09:30:09;43.7003305607177;38.61889677458774;17.276874872841884
85896;PMS5003;76442;52.412;16.940;2024-02-16T09:45:09;40.01248932158546;40.01248932158546;20.51922529312075
85896;PMS5003;76442;52.412;16.940;2024-02-16T10:00:09;43.04120830557576;33.81809224009524;16.396650783076478
85896;PMS5003;76442;52.412;16.940;2024-02-16T10:15:09;28.81290600448783;28.81290600448783;16.46451771685019
85896;PMS5003;76442;52.412;16.940;2024-02-16T10:30:09;28.90445222813875;25.807546632266742;13.419924248778706
85896;PMS5003;76442;52.412;16.940;2024-02-16T10:45:09;34.12888339827611;27.923631871316818;16.54733740522478
85896;PMS5003;76442;52.412;16.940;2024-02-16T11:00:09;41.38195496351119;31.036466222633393;13.449135363141137
85896;PMS5003;76442;52.412;16.940;2024-02-16T11:15:10;27.98761544484847;27.98761544484847;14.512096897328835
85896;PMS5003;76442;52.412;16.940;2024-02-16T11:30:09;31.16617480157833;28.049557321420497;12.466469920631331
85896;PMS5003;76442;52.412;16.940;2024-02-16T11:45:09;38.417153592862235;34.26394779903929;18.68942607220325
85896;PMS5003;76442;52.412;16.940;2024-02-16T12:00:10;28.13483472296315;26.050772891632548;13.546401903648924
85896;PMS5003;76442;52.412;16.940;2024-02-16T12:15:09;21.97588278493088;21.97588278493088;12.55764730567479
85896;PMS5003;76442;52.412;16.940;2024-02-16T12:30:09;18.915449573027196;18.915449573027196;9.457724786513598
85896;PMS5003;76442;52.412;16.940;2024-02-16T12:45:09;19.937294643703563;19.937294643703563;9.443981673333266
85896;PMS5003;76442;52.412;16.940;2024-02-16T13:00:09;20.01277756730593;20.01277756730593;9.479736742408072
85896;PMS5003;76442;52.412;16.940;2024-02-16T13:15:09;24.231073920808512;24.231073920808512;13.695824390022203
85896;PMS5003;76442;52.412;16.940;2024-02-16T13:30:09;22.151747045988362;22.151747045988362;9.493605876852156
85896;PMS5003;76442;52.412;16.940;2024-02-16T13:45:09;16.755216429727998;16.755216429727998;7.330407188005999
85896;PMS5003;76442;52.412;16.940;2024-02-16T14:00:09;30.259440922337465;30.259440922337465;14.608005962507741
85896;PMS5003;76442;52.412;16.940;2024-02-16T14:15:09;17.684979968543903;17.684979968543903;8.322343514608896
85896;PMS5003;76442;52.412;16.940;2024-02-16T14:30:09;20.816224560448454;20.816224560448454;10.408112280224227
85896;PMS5003;76442;52.412;16.940;2024-02-16T14:45:09;24.008469744339273;24.008469744339273;12.52615812748136
85896;PMS5003;76442;52.412;16.940;2024-02-16T15:00:09;20.816224560448454;20.816224560448454;13.530545964291495
85896;PMS5003;76442;52.412;16.940;2024-02-16T15:15:09;32.210936756987934;29.093749328892326;15.58593714047803
85896;PMS5003;76442;52.412;16.940;2024-02-16T15:30:09;22.73972511310069;17.57160576921417;12.40348642532765
85896;PMS5003;76442;52.412;16.940;2024-02-16T15:45:09;25.902425788484308;20.721940630787447;11.397067346933095
85896;PMS5003;76442;52.412;16.940;2024-02-16T16:00:09;26.96601406835784;26.96601406835784;13.48300703417892
85896;PMS5003;76442;52.412;16.940;2024-02-16T16:15:09;20.786942170212075;20.786942170212075;10.393471085106038
85896;PMS5003;76442;52.412;16.940;2024-02-16T16:30:09;22.864593359890755;22.864593359890755;11.432296679945377
85896;PMS5003;76442;52.412;16.940;2024-02-16T16:45:09;21.803329524493805;21.803329524493805;9.344284081925917
85896;PMS5003;76442;52.412;16.940;2024-02-16T17:00:09;31.146183414485435;24.91694673158835;13.496679479610355
85896;PMS5003;76442;52.412;16.940;2024-02-16T17:15:09;28.052122702684287;23.896252672656985;12.467610090081905
85896;PMS5003;76442;52.412;16.940;2024-02-16T17:30:10;21.802328390139806;21.802328390139806;10.382061138161813
85896;PMS5003;76442;52.412;16.940;2024-02-16T17:45:10;29.013414895697384;29.013414895697384;15.542900836980742
85896;PMS5003;76442;52.412;16.940;2024-02-16T18:00:10;24.865172042279646;24.865172042279646;11.396537186044839
85896;PMS5003;76442;52.412;16.940;2024-02-16T18:15:09;20.690977481755596;20.690977481755596;13.449135363141137
85896;PMS5003;76442;52.412;16.940;2024-02-16T18:30:09;22.73542867056782;22.73542867056782;12.40114291121881
85896;PMS5003;76442;52.412;16.940;2024-02-16T18:50:09;39.16184312470237;35.039543848417914;13.397472647924497
85896;PMS5003;76442;52.412;16.940;2024-02-16T19:05:09;28.83663229911174;28.83663229911174;16.478075599492424
85896;PMS5003;76442;52.412;16.940;2024-02-16T19:20:09;36.11980809910191;34.11315209359625;18.059904049550955
85896;PMS5003;76442;52.412;16.940;2024-02-16T19:35:09;32.54893860929026;32.54893860929026;16.76763504114953
85896;PMS5003;76442;52.412;16.940;2024-02-16T19:55:10;42.949499680160436;37.95537181037434;16.98003475727273
85896;PMS5003;76442;52.412;16.940;2024-02-16T20:10:09;51.86882253445029;51.86882253445029;23.939456554361673
85896;PMS5003;76442;52.412;16.940;2024-02-16T20:25:09;34.91376608500442;34.91376608500442;19.95072347714538
85896;PMS5003;76442;52.412;16.940;2024-02-16T20:40:09;40.821441735488065;40.821441735488065;19.912898407555154
85896;PMS5003;76442;52.412;16.940;2024-02-16T20:55:09;41.69896428554375;41.69896428554375;19.85664965978274
85896;PMS5003;76442;52.412;16.940;2024-02-16T21:10:09;41.70402668280427;35.7463085852608;19.85906032514489
85896;PMS5003;76442;52.412;16.940;2024-02-16T21:25:09;35.875216515549056;35.875216515549056;22.920277218267454
85896;PMS5003;76442;52.412;16.940;2024-02-16T21:40:09;35.98500254710895;35.98500254710895;17.992501273554474
85896;PMS5003;76442;52.412;16.940;2024-02-16T21:55:09;46.118907167706006;34.08788790656531;21.05428370699622
85896;PMS5003;76442;52.412;16.940;2024-02-16T22:10:09;32.09553309079195;32.09553309079195;21.062693590832218
85896;PMS5003;76442;52.412;16.940;2024-02-16T22:25:09;33.9779185910913;33.9779185910913;19.98701093593606
85896;PMS5003;76442;52.412;16.940;2024-02-16T22:40:09;32.04042112081474;32.04042112081474;21.026526360534675
85896;PMS5003;76442;52.412;16.940;2024-02-16T22:55:09;40.041293912970374;34.03509982602482;21.021679304309448
85896;PMS5003;76442;52.412;16.940;2024-02-16T23:10:09;41.822074455486266;37.839019745439955;18.919509872719978
85896;PMS5003;76442;52.412;16.940;2024-02-16T23:25:09;38.50576282840568;38.50576282840568;18.75921778819764
85896;PMS5003;76442;52.412;16.940;2024-02-16T23:40:09;37.46872985920752;37.46872985920752;20.70640334324626
85896;PMS5003;76442;52.412;16.940;2024-02-16T23:55:09;26.569929822773954;26.569929822773954;13.777000648845753
